sensor_id;sensor_type;location;lat;lon;timestamp;P1;durP1;ratioP1;P2;durP2;ratioP2
51901;SDS011;37929;53.218;6.548;2022-07-29T00:01:35;3.05;;;1.50;;
51901;SDS011;37929;53.218;6.548;2022-07-29T00:04:04;2.90;;;1.58;;
51901;SDS011;37929;53.218;6.548;2022-07-29T00:06:30;2.20;;;1.38;;
51901;SDS011;37929;53.218;6.548;2022-07-29T00:08:55;4.70;;;1.48;;
51901;SDS011;37929;53.218;6.548;2022-07-29T00:11:21;3.35;;;1.60;;
51901;SDS011;37929;53.218;6.548;2022-07-29T00:13:47;2.63;;;1.50;;
51901;SDS011;37929;53.218;6.548;2022-07-29T00:16:16;2.42;;;1.52;;
51901;SDS011;37929;53.218;6.548;2022-07-29T00:18:42;5.30;;;1.58;;
51901;SDS011;37929;53.218;6.548;2022-07-29T00:21:07;3.17;;;1.50;;
51901;SDS011;37929;53.218;6.548;2022-07-29T00:23:33;3.10;;;1.50;;
51901;SDS011;37929;53.218;6.548;2022-07-29T00:25:59;3.53;;;1.90;;
51901;SDS011;37929;53.218;6.548;2022-07-29T00:28:25;3.88;;;1.73;;
51901;SDS011;37929;53.218;6.548;2022-07-29T00:31:10;4.38;;;1.60;;
51901;SDS011;37929;53.218;6.548;2022-07-29T00:33:37;2.33;;;1.45;;
51901;SDS011;37929;53.218;6.548;2022-07-29T00:36:06;3.92;;;1.33;;
51901;SDS011;37929;53.218;6.548;2022-07-29T00:38:35;3.55;;;1.60;;
51901;SDS011;37929;53.218;6.548;2022-07-29T00:41:10;3.25;;;1.77;;
51901;SDS011;37929;53.218;6.548;2022-07-29T00:43:55;3.08;;;1.50;;
51901;SDS011;37929;53.218;6.548;2022-07-29T00:46:24;2.50;;;1.45;;
51901;SDS011;37929;53.218;6.548;2022-07-29T00:49:02;2.80;;;1.75;;
51901;SDS011;37929;53.218;6.548;2022-07-29T00:51:36;4.03;;;1.55;;
51901;SDS011;37929;53.218;6.548;2022-07-29T00:54:05;3.72;;;1.48;;
51901;SDS011;37929;53.218;6.548;2022-07-29T00:56:40;2.97;;;1.42;;
51901;SDS011;37929;53.218;6.548;2022-07-29T00:59:07;2.38;;;1.55;;
51901;SDS011;37929;53.218;6.548;2022-07-29T01:01:45;3.00;;;1.60;;
51901;SDS011;37929;53.218;6.548;2022-07-29T01:04:26;3.22;;;1.90;;
51901;SDS011;37929;53.218;6.548;2022-07-29T01:06:54;2.85;;;1.80;;
51901;SDS011;37929;53.218;6.548;2022-07-29T01:09:32;3.28;;;1.65;;
51901;SDS011;37929;53.218;6.548;2022-07-29T01:12:01;3.13;;;1.75;;
51901;SDS011;37929;53.218;6.548;2022-07-29T01:14:33;5.38;;;1.65;;
51901;SDS011;37929;53.218;6.548;2022-07-29T01:29:08;4.25;;;1.92;;
51901;SDS011;37929;53.218;6.548;2022-07-29T01:32:14;3.40;;;1.40;;
51901;SDS011;37929;53.218;6.548;2022-07-29T01:37:47;3.20;;;1.50;;
51901;SDS011;37929;53.218;6.548;2022-07-29T01:40:40;2.33;;;1.45;;
51901;SDS011;37929;53.218;6.548;2022-07-29T01:43:12;4.03;;;1.77;;
51901;SDS011;37929;53.218;6.548;2022-07-29T01:48:22;3.40;;;1.65;;
51901;SDS011;37929;53.218;6.548;2022-07-29T01:51:14;3.50;;;1.67;;
51901;SDS011;37929;53.218;6.548;2022-07-29T01:53:47;3.38;;;1.70;;
51901;SDS011;37929;53.218;6.548;2022-07-29T01:56:40;4.20;;;1.80;;
51901;SDS011;37929;53.218;6.548;2022-07-29T01:59:08;2.50;;;1.80;;
51901;SDS011;37929;53.218;6.548;2022-07-29T02:01:35;2.45;;;1.45;;
51901;SDS011;37929;53.218;6.548;2022-07-29T02:04:03;2.40;;;1.52;;
51901;SDS011;37929;53.218;6.548;2022-07-29T02:06:32;3.88;;;1.70;;
51901;SDS011;37929;53.218;6.548;2022-07-29T02:09:00;4.13;;;1.70;;
51901;SDS011;37929;53.218;6.548;2022-07-29T02:11:27;4.22;;;1.65;;
51901;SDS011;37929;53.218;6.548;2022-07-29T02:13:56;3.28;;;1.80;;
51901;SDS011;37929;53.218;6.548;2022-07-29T02:16:26;2.95;;;1.63;;
51901;SDS011;37929;53.218;6.548;2022-07-29T02:18:53;5.40;;;1.60;;
51901;SDS011;37929;53.218;6.548;2022-07-29T02:21:23;3.58;;;1.90;;
51901;SDS011;37929;53.218;6.548;2022-07-29T02:23:52;3.08;;;1.60;;
51901;SDS011;37929;53.218;6.548;2022-07-29T02:26:24;3.03;;;1.52;;
51901;SDS011;37929;53.218;6.548;2022-07-29T02:28:52;3.38;;;1.90;;
51901;SDS011;37929;53.218;6.548;2022-07-29T02:31:25;5.07;;;1.50;;
51901;SDS011;37929;53.218;6.548;2022-07-29T02:33:58;3.00;;;1.60;;
51901;SDS011;37929;53.218;6.548;2022-07-29T02:36:31;3.97;;;1.67;;
51901;SDS011;37929;53.218;6.548;2022-07-29T02:38:58;5.45;;;1.88;;
51901;SDS011;37929;53.218;6.548;2022-07-29T02:41:30;4.35;;;1.70;;
51901;SDS011;37929;53.218;6.548;2022-07-29T02:44:12;2.63;;;1.58;;
51901;SDS011;37929;53.218;6.548;2022-07-29T02:46:45;2.33;;;1.60;;
51901;SDS011;37929;53.218;6.548;2022-07-29T03:00:28;4.65;;;1.73;;
51901;SDS011;37929;53.218;6.548;2022-07-29T03:02:58;4.05;;;1.60;;
51901;SDS011;37929;53.218;6.548;2022-07-29T03:05:25;5.15;;;1.83;;
51901;SDS011;37929;53.218;6.548;2022-07-29T03:07:55;4.47;;;1.83;;
51901;SDS011;37929;53.218;6.548;2022-07-29T03:10:26;3.10;;;1.63;;
51901;SDS011;37929;53.218;6.548;2022-07-29T03:12:59;3.35;;;1.73;;
51901;SDS011;37929;53.218;6.548;2022-07-29T03:15:38;5.60;;;1.63;;
51901;SDS011;37929;53.218;6.548;2022-07-29T03:18:09;4.43;;;1.70;;
51901;SDS011;37929;53.218;6.548;2022-07-29T03:21:13;5.10;;;1.85;;
51901;SDS011;37929;53.218;6.548;2022-07-29T03:23:45;3.10;;;1.75;;
51901;SDS011;37929;53.218;6.548;2022-07-29T03:26:17;3.72;;;1.70;;
51901;SDS011;37929;53.218;6.548;2022-07-29T03:28:44;3.10;;;1.60;;
51901;SDS011;37929;53.218;6.548;2022-07-29T03:31:10;2.67;;;1.80;;
51901;SDS011;37929;53.218;6.548;2022-07-29T03:33:36;3.83;;;1.83;;
51901;SDS011;37929;53.218;6.548;2022-07-29T03:36:02;2.75;;;1.60;;
51901;SDS011;37929;53.218;6.548;2022-07-29T03:38:28;3.17;;;1.80;;
51901;SDS011;37929;53.218;6.548;2022-07-29T03:41:28;4.05;;;1.70;;
51901;SDS011;37929;53.218;6.548;2022-07-29T03:44:14;2.65;;;1.85;;
51901;SDS011;37929;53.218;6.548;2022-07-29T03:46:50;3.42;;;1.70;;
51901;SDS011;37929;53.218;6.548;2022-07-29T03:49:24;4.72;;;2.10;;
51901;SDS011;37929;53.218;6.548;2022-07-29T03:52:04;4.65;;;2.08;;
51901;SDS011;37929;53.218;6.548;2022-07-29T03:54:36;3.33;;;1.80;;
51901;SDS011;37929;53.218;6.548;2022-07-29T03:57:02;2.75;;;1.80;;
51901;SDS011;37929;53.218;6.548;2022-07-29T03:59:31;7.68;;;2.10;;
51901;SDS011;37929;53.218;6.548;2022-07-29T04:02:05;3.20;;;1.90;;
51901;SDS011;37929;53.218;6.548;2022-07-29T04:04:36;4.95;;;2.10;;
51901;SDS011;37929;53.218;6.548;2022-07-29T04:07:02;3.95;;;1.60;;
51901;SDS011;37929;53.218;6.548;2022-07-29T04:09:29;2.75;;;1.83;;
51901;SDS011;37929;53.218;6.548;2022-07-29T04:11:55;4.63;;;1.73;;
51901;SDS011;37929;53.218;6.548;2022-07-29T04:14:21;5.45;;;1.98;;
51901;SDS011;37929;53.218;6.548;2022-07-29T04:16:49;3.40;;;2.10;;
51901;SDS011;37929;53.218;6.548;2022-07-29T04:19:21;4.40;;;1.98;;
51901;SDS011;37929;53.218;6.548;2022-07-29T04:22:00;5.60;;;1.88;;
51901;SDS011;37929;53.218;6.548;2022-07-29T04:24:47;3.97;;;1.90;;
51901;SDS011;37929;53.218;6.548;2022-07-29T04:27:19;3.53;;;1.90;;
51901;SDS011;37929;53.218;6.548;2022-07-29T04:30:01;3.83;;;2.00;;
51901;SDS011;37929;53.218;6.548;2022-07-29T04:32:32;4.45;;;2.28;;
51901;SDS011;37929;53.218;6.548;2022-07-29T04:35:07;4.50;;;1.88;;
51901;SDS011;37929;53.218;6.548;2022-07-29T04:37:35;3.83;;;1.95;;
51901;SDS011;37929;53.218;6.548;2022-07-29T04:40:01;4.40;;;1.77;;
51901;SDS011;37929;53.218;6.548;2022-07-29T04:42:28;4.70;;;2.25;;
51901;SDS011;37929;53.218;6.548;2022-07-29T04:44:54;5.10;;;2.15;;
51901;SDS011;37929;53.218;6.548;2022-07-29T04:47:19;4.60;;;2.17;;
51901;SDS011;37929;53.218;6.548;2022-07-29T04:49:51;3.60;;;1.80;;
51901;SDS011;37929;53.218;6.548;2022-07-29T04:52:28;5.05;;;2.20;;
51901;SDS011;37929;53.218;6.548;2022-07-29T04:57:19;2.38;;;1.70;;
51901;SDS011;37929;53.218;6.548;2022-07-29T04:59:47;5.45;;;2.20;;
51901;SDS011;37929;53.218;6.548;2022-07-29T05:02:24;3.28;;;1.90;;
51901;SDS011;37929;53.218;6.548;2022-07-29T05:04:57;4.63;;;1.90;;
51901;SDS011;37929;53.218;6.548;2022-07-29T05:09:49;5.50;;;1.70;;
51901;SDS011;37929;53.218;6.548;2022-07-29T05:12:15;4.78;;;1.90;;
51901;SDS011;37929;53.218;6.548;2022-07-29T05:14:44;5.75;;;1.80;;
51901;SDS011;37929;53.218;6.548;2022-07-29T05:17:10;3.70;;;1.88;;
51901;SDS011;37929;53.218;6.548;2022-07-29T05:19:39;4.43;;;1.85;;
51901;SDS011;37929;53.218;6.548;2022-07-29T05:22:08;4.53;;;1.90;;
51901;SDS011;37929;53.218;6.548;2022-07-29T05:24:33;6.40;;;2.05;;
51901;SDS011;37929;53.218;6.548;2022-07-29T05:26:59;5.15;;;2.45;;
51901;SDS011;37929;53.218;6.548;2022-07-29T05:29:25;3.38;;;1.73;;
51901;SDS011;37929;53.218;6.548;2022-07-29T05:31:51;4.13;;;1.88;;
51901;SDS011;37929;53.218;6.548;2022-07-29T05:34:21;3.50;;;1.85;;
51901;SDS011;37929;53.218;6.548;2022-07-29T05:36:47;3.35;;;1.70;;
51901;SDS011;37929;53.218;6.548;2022-07-29T05:39:13;3.50;;;2.00;;
51901;SDS011;37929;53.218;6.548;2022-07-29T05:41:45;4.10;;;2.10;;
51901;SDS011;37929;53.218;6.548;2022-07-29T05:44:19;4.40;;;1.80;;
51901;SDS011;37929;53.218;6.548;2022-07-29T05:46:45;4.22;;;1.98;;
51901;SDS011;37929;53.218;6.548;2022-07-29T05:49:14;3.92;;;2.00;;
51901;SDS011;37929;53.218;6.548;2022-07-29T05:51:46;5.20;;;2.30;;
51901;SDS011;37929;53.218;6.548;2022-07-29T05:54:14;5.05;;;2.20;;
51901;SDS011;37929;53.218;6.548;2022-07-29T05:56:40;4.90;;;2.00;;
51901;SDS011;37929;53.218;6.548;2022-07-29T05:59:06;5.35;;;1.83;;
51901;SDS011;37929;53.218;6.548;2022-07-29T06:01:32;3.70;;;1.85;;
51901;SDS011;37929;53.218;6.548;2022-07-29T06:03:58;3.88;;;1.98;;
51901;SDS011;37929;53.218;6.548;2022-07-29T06:06:24;4.25;;;2.10;;
51901;SDS011;37929;53.218;6.548;2022-07-29T06:08:52;5.85;;;2.25;;
51901;SDS011;37929;53.218;6.548;2022-07-29T06:11:18;6.55;;;2.05;;
51901;SDS011;37929;53.218;6.548;2022-07-29T06:13:44;7.32;;;2.47;;
51901;SDS011;37929;53.218;6.548;2022-07-29T06:16:10;3.50;;;1.70;;
51901;SDS011;37929;53.218;6.548;2022-07-29T06:18:36;6.78;;;2.05;;
51901;SDS011;37929;53.218;6.548;2022-07-29T06:21:06;5.93;;;2.30;;
51901;SDS011;37929;53.218;6.548;2022-07-29T06:23:37;5.10;;;2.13;;
51901;SDS011;37929;53.218;6.548;2022-07-29T06:26:12;3.58;;;2.03;;
51901;SDS011;37929;53.218;6.548;2022-07-29T06:28:38;4.47;;;1.88;;
51901;SDS011;37929;53.218;6.548;2022-07-29T06:31:04;3.47;;;1.92;;
51901;SDS011;37929;53.218;6.548;2022-07-29T06:33:34;5.72;;;1.90;;
51901;SDS011;37929;53.218;6.548;2022-07-29T06:36:05;6.95;;;2.47;;
51901;SDS011;37929;53.218;6.548;2022-07-29T06:38:32;5.10;;;2.35;;
51901;SDS011;37929;53.218;6.548;2022-07-29T06:41:01;4.75;;;1.95;;
51901;SDS011;37929;53.218;6.548;2022-07-29T06:43:34;4.93;;;2.10;;
51901;SDS011;37929;53.218;6.548;2022-07-29T06:46:08;6.57;;;2.38;;
51901;SDS011;37929;53.218;6.548;2022-07-29T06:48:41;4.93;;;2.40;;
51901;SDS011;37929;53.218;6.548;2022-07-29T06:51:19;4.80;;;2.00;;
51901;SDS011;37929;53.218;6.548;2022-07-29T06:56:30;5.60;;;2.20;;
51901;SDS011;37929;53.218;6.548;2022-07-29T06:59:27;4.10;;;2.00;;
51901;SDS011;37929;53.218;6.548;2022-07-29T07:01:58;4.80;;;2.20;;
51901;SDS011;37929;53.218;6.548;2022-07-29T07:04:30;5.15;;;2.08;;
51901;SDS011;37929;53.218;6.548;2022-07-29T07:06:57;3.85;;;2.25;;
51901;SDS011;37929;53.218;6.548;2022-07-29T07:09:41;4.80;;;2.13;;
51901;SDS011;37929;53.218;6.548;2022-07-29T07:12:21;4.65;;;2.17;;
51901;SDS011;37929;53.218;6.548;2022-07-29T07:14:55;6.63;;;2.58;;
51901;SDS011;37929;53.218;6.548;2022-07-29T07:17:32;4.78;;;2.38;;
51901;SDS011;37929;53.218;6.548;2022-07-29T07:20:01;4.25;;;2.17;;
51901;SDS011;37929;53.218;6.548;2022-07-29T07:22:27;4.63;;;2.08;;
51901;SDS011;37929;53.218;6.548;2022-07-29T07:24:54;5.97;;;2.55;;
51901;SDS011;37929;53.218;6.548;2022-07-29T07:27:20;7.20;;;2.10;;
51901;SDS011;37929;53.218;6.548;2022-07-29T07:29:45;3.97;;;2.08;;
51901;SDS011;37929;53.218;6.548;2022-07-29T07:32:20;5.10;;;2.10;;
51901;SDS011;37929;53.218;6.548;2022-07-29T07:34:49;6.88;;;2.40;;
51901;SDS011;37929;53.218;6.548;2022-07-29T07:37:15;5.90;;;2.38;;
51901;SDS011;37929;53.218;6.548;2022-07-29T07:39:44;3.55;;;1.90;;
51901;SDS011;37929;53.218;6.548;2022-07-29T07:42:10;4.88;;;1.98;;
51901;SDS011;37929;53.218;6.548;2022-07-29T07:44:38;6.18;;;2.60;;
51901;SDS011;37929;53.218;6.548;2022-07-29T07:47:07;6.78;;;2.15;;
51901;SDS011;37929;53.218;6.548;2022-07-29T07:49:36;5.80;;;2.33;;
51901;SDS011;37929;53.218;6.548;2022-07-29T07:52:11;4.72;;;2.40;;
51901;SDS011;37929;53.218;6.548;2022-07-29T07:54:41;3.75;;;2.40;;
51901;SDS011;37929;53.218;6.548;2022-07-29T07:57:16;4.95;;;2.38;;
51901;SDS011;37929;53.218;6.548;2022-07-29T07:59:42;5.18;;;2.40;;
51901;SDS011;37929;53.218;6.548;2022-07-29T08:02:28;5.90;;;2.25;;
51901;SDS011;37929;53.218;6.548;2022-07-29T08:04:57;3.95;;;2.17;;
51901;SDS011;37929;53.218;6.548;2022-07-29T08:07:27;4.70;;;2.40;;
51901;SDS011;37929;53.218;6.548;2022-07-29T08:09:56;6.40;;;2.42;;
51901;SDS011;37929;53.218;6.548;2022-07-29T08:12:32;5.60;;;2.45;;
51901;SDS011;37929;53.218;6.548;2022-07-29T08:18:38;5.13;;;2.20;;
51901;SDS011;37929;53.218;6.548;2022-07-29T08:21:26;5.45;;;2.40;;
51901;SDS011;37929;53.218;6.548;2022-07-29T08:24:00;5.13;;;2.35;;
51901;SDS011;37929;53.218;6.548;2022-07-29T08:26:52;6.55;;;2.55;;
51901;SDS011;37929;53.218;6.548;2022-07-29T08:29:39;5.88;;;2.40;;
51901;SDS011;37929;53.218;6.548;2022-07-29T08:32:11;4.15;;;2.28;;
51901;SDS011;37929;53.218;6.548;2022-07-29T08:34:45;8.05;;;2.42;;
51901;SDS011;37929;53.218;6.548;2022-07-29T08:37:11;5.13;;;2.40;;
51901;SDS011;37929;53.218;6.548;2022-07-29T08:39:37;5.60;;;2.42;;
51901;SDS011;37929;53.218;6.548;2022-07-29T08:42:05;6.38;;;2.53;;
51901;SDS011;37929;53.218;6.548;2022-07-29T08:44:34;3.55;;;2.30;;
51901;SDS011;37929;53.218;6.548;2022-07-29T08:47:00;6.18;;;2.50;;
51901;SDS011;37929;53.218;6.548;2022-07-29T08:49:26;5.63;;;2.42;;
51901;SDS011;37929;53.218;6.548;2022-07-29T08:51:52;4.13;;;2.20;;
51901;SDS011;37929;53.218;6.548;2022-07-29T08:54:18;5.07;;;2.67;;
51901;SDS011;37929;53.218;6.548;2022-07-29T08:56:50;4.85;;;2.45;;
51901;SDS011;37929;53.218;6.548;2022-07-29T08:59:20;7.82;;;2.80;;
51901;SDS011;37929;53.218;6.548;2022-07-29T09:01:52;4.00;;;2.20;;
51901;SDS011;37929;53.218;6.548;2022-07-29T09:04:19;4.00;;;2.40;;
51901;SDS011;37929;53.218;6.548;2022-07-29T09:06:47;4.45;;;2.50;;
51901;SDS011;37929;53.218;6.548;2022-07-29T09:09:27;6.47;;;2.70;;
51901;SDS011;37929;53.218;6.548;2022-07-29T09:12:10;4.07;;;2.45;;
51901;SDS011;37929;53.218;6.548;2022-07-29T09:14:39;8.30;;;2.50;;
51901;SDS011;37929;53.218;6.548;2022-07-29T09:17:05;5.90;;;2.58;;
51901;SDS011;37929;53.218;6.548;2022-07-29T09:19:36;4.85;;;2.70;;
51901;SDS011;37929;53.218;6.548;2022-07-29T09:22:03;6.93;;;2.67;;
51901;SDS011;37929;53.218;6.548;2022-07-29T09:24:43;7.00;;;2.70;;
51901;SDS011;37929;53.218;6.548;2022-07-29T09:27:19;5.13;;;3.08;;
51901;SDS011;37929;53.218;6.548;2022-07-29T09:29:48;5.85;;;2.55;;
51901;SDS011;37929;53.218;6.548;2022-07-29T09:32:31;6.93;;;2.72;;
51901;SDS011;37929;53.218;6.548;2022-07-29T09:35:26;7.32;;;2.58;;
51901;SDS011;37929;53.218;6.548;2022-07-29T09:37:55;4.35;;;2.35;;
51901;SDS011;37929;53.218;6.548;2022-07-29T09:40:25;6.15;;;2.90;;
51901;SDS011;37929;53.218;6.548;2022-07-29T09:42:53;4.10;;;2.60;;
51901;SDS011;37929;53.218;6.548;2022-07-29T09:47:58;4.53;;;2.60;;
51901;SDS011;37929;53.218;6.548;2022-07-29T09:50:45;6.80;;;2.58;;
51901;SDS011;37929;53.218;6.548;2022-07-29T09:56:06;5.18;;;2.50;;
51901;SDS011;37929;53.218;6.548;2022-07-29T09:58:35;5.63;;;2.45;;
51901;SDS011;37929;53.218;6.548;2022-07-29T10:01:04;6.60;;;2.60;;
51901;SDS011;37929;53.218;6.548;2022-07-29T10:03:36;4.78;;;2.50;;
51901;SDS011;37929;53.218;6.548;2022-07-29T10:06:16;4.55;;;3.03;;
51901;SDS011;37929;53.218;6.548;2022-07-29T10:08:42;6.15;;;2.70;;
51901;SDS011;37929;53.218;6.548;2022-07-29T10:11:09;7.93;;;2.88;;
51901;SDS011;37929;53.218;6.548;2022-07-29T10:13:38;6.55;;;2.50;;
51901;SDS011;37929;53.218;6.548;2022-07-29T10:16:05;4.38;;;2.53;;
51901;SDS011;37929;53.218;6.548;2022-07-29T10:18:35;4.43;;;2.28;;
51901;SDS011;37929;53.218;6.548;2022-07-29T10:21:23;5.95;;;3.00;;
51901;SDS011;37929;53.218;6.548;2022-07-29T10:24:12;6.88;;;2.63;;
51901;SDS011;37929;53.218;6.548;2022-07-29T10:26:49;7.57;;;2.60;;
51901;SDS011;37929;53.218;6.548;2022-07-29T10:29:28;6.53;;;2.80;;
51901;SDS011;37929;53.218;6.548;2022-07-29T10:32:35;6.55;;;3.05;;
51901;SDS011;37929;53.218;6.548;2022-07-29T10:35:39;6.07;;;2.60;;
51901;SDS011;37929;53.218;6.548;2022-07-29T10:43:54;9.43;;;3.95;;
51901;SDS011;37929;53.218;6.548;2022-07-29T10:46:50;9.02;;;3.15;;
51901;SDS011;37929;53.218;6.548;2022-07-29T10:49:20;6.53;;;2.47;;
51901;SDS011;37929;53.218;6.548;2022-07-29T11:02:46;8.95;;;2.72;;
51901;SDS011;37929;53.218;6.548;2022-07-29T11:05:24;6.03;;;2.72;;
51901;SDS011;37929;53.218;6.548;2022-07-29T11:10:46;6.40;;;2.80;;
51901;SDS011;37929;53.218;6.548;2022-07-29T11:13:13;4.60;;;2.75;;
51901;SDS011;37929;53.218;6.548;2022-07-29T11:16:14;4.72;;;2.90;;
51901;SDS011;37929;53.218;6.548;2022-07-29T11:22:37;6.10;;;3.25;;
51901;SDS011;37929;53.218;6.548;2022-07-29T11:25:13;5.97;;;3.10;;
51901;SDS011;37929;53.218;6.548;2022-07-29T11:27:51;5.72;;;2.75;;
51901;SDS011;37929;53.218;6.548;2022-07-29T11:33:28;7.25;;;3.00;;
51901;SDS011;37929;53.218;6.548;2022-07-29T11:36:12;7.30;;;3.10;;
51901;SDS011;37929;53.218;6.548;2022-07-29T11:38:50;7.38;;;3.25;;
51901;SDS011;37929;53.218;6.548;2022-07-29T11:43:58;4.20;;;2.72;;
51901;SDS011;37929;53.218;6.548;2022-07-29T11:46:47;7.30;;;3.40;;
51901;SDS011;37929;53.218;6.548;2022-07-29T11:49:24;8.18;;;3.67;;
51901;SDS011;37929;53.218;6.548;2022-07-29T11:51:55;6.53;;;3.17;;
51901;SDS011;37929;53.218;6.548;2022-07-29T11:54:41;6.35;;;3.22;;
51901;SDS011;37929;53.218;6.548;2022-07-29T11:57:08;5.25;;;2.88;;
51901;SDS011;37929;53.218;6.548;2022-07-29T11:59:40;9.57;;;3.55;;
51901;SDS011;37929;53.218;6.548;2022-07-29T12:02:10;7.65;;;3.22;;
51901;SDS011;37929;53.218;6.548;2022-07-29T12:07:32;9.63;;;3.25;;
51901;SDS011;37929;53.218;6.548;2022-07-29T12:10:02;8.18;;;3.15;;
51901;SDS011;37929;53.218;6.548;2022-07-29T12:12:30;4.53;;;3.10;;
51901;SDS011;37929;53.218;6.548;2022-07-29T12:14:58;8.52;;;3.03;;
51901;SDS011;37929;53.218;6.548;2022-07-29T12:18:21;4.53;;;2.78;;
51901;SDS011;37929;53.218;6.548;2022-07-29T12:21:01;9.30;;;3.08;;
51901;SDS011;37929;53.218;6.548;2022-07-29T12:23:29;5.85;;;3.10;;
51901;SDS011;37929;53.218;6.548;2022-07-29T12:25:58;6.13;;;3.03;;
51901;SDS011;37929;53.218;6.548;2022-07-29T12:28:30;5.80;;;2.83;;
51901;SDS011;37929;53.218;6.548;2022-07-29T12:31:12;5.50;;;2.70;;
51901;SDS011;37929;53.218;6.548;2022-07-29T12:33:39;8.45;;;3.20;;
51901;SDS011;37929;53.218;6.548;2022-07-29T12:36:05;8.10;;;3.00;;
51901;SDS011;37929;53.218;6.548;2022-07-29T12:38:31;4.80;;;2.60;;
51901;SDS011;37929;53.218;6.548;2022-07-29T12:40:57;6.68;;;2.50;;
51901;SDS011;37929;53.218;6.548;2022-07-29T12:43:23;5.70;;;2.65;;
51901;SDS011;37929;53.218;6.548;2022-07-29T12:45:50;8.65;;;2.28;;
51901;SDS011;37929;53.218;6.548;2022-07-29T12:48:32;4.68;;;2.80;;
51901;SDS011;37929;53.218;6.548;2022-07-29T12:51:15;6.43;;;2.95;;
51901;SDS011;37929;53.218;6.548;2022-07-29T12:54:00;4.72;;;2.35;;
51901;SDS011;37929;53.218;6.548;2022-07-29T12:56:28;6.75;;;2.88;;
51901;SDS011;37929;53.218;6.548;2022-07-29T12:58:56;8.13;;;3.20;;
51901;SDS011;37929;53.218;6.548;2022-07-29T13:01:23;7.32;;;2.67;;
51901;SDS011;37929;53.218;6.548;2022-07-29T13:03:54;4.88;;;2.55;;
51901;SDS011;37929;53.218;6.548;2022-07-29T13:06:41;3.65;;;1.98;;
51901;SDS011;37929;53.218;6.548;2022-07-29T13:11:45;6.53;;;2.58;;
51901;SDS011;37929;53.218;6.548;2022-07-29T13:14:31;7.20;;;2.50;;
51901;SDS011;37929;53.218;6.548;2022-07-29T13:22:05;4.28;;;2.33;;
51901;SDS011;37929;53.218;6.548;2022-07-29T13:24:31;5.90;;;2.40;;
51901;SDS011;37929;53.218;6.548;2022-07-29T13:26:57;5.65;;;2.40;;
51901;SDS011;37929;53.218;6.548;2022-07-29T13:29:23;6.43;;;2.78;;
51901;SDS011;37929;53.218;6.548;2022-07-29T13:31:49;5.80;;;2.53;;
51901;SDS011;37929;53.218;6.548;2022-07-29T13:34:14;6.20;;;2.72;;
51901;SDS011;37929;53.218;6.548;2022-07-29T13:36:42;5.38;;;2.83;;
51901;SDS011;37929;53.218;6.548;2022-07-29T13:39:08;7.57;;;2.67;;
51901;SDS011;37929;53.218;6.548;2022-07-29T13:41:38;5.22;;;2.40;;
51901;SDS011;37929;53.218;6.548;2022-07-29T13:44:04;5.70;;;2.58;;
51901;SDS011;37929;53.218;6.548;2022-07-29T13:46:47;5.60;;;2.45;;
51901;SDS011;37929;53.218;6.548;2022-07-29T13:49:15;8.30;;;2.95;;
51901;SDS011;37929;53.218;6.548;2022-07-29T13:51:41;4.88;;;2.33;;
51901;SDS011;37929;53.218;6.548;2022-07-29T13:54:07;4.78;;;2.55;;
51901;SDS011;37929;53.218;6.548;2022-07-29T13:56:33;4.72;;;2.72;;
51901;SDS011;37929;53.218;6.548;2022-07-29T13:58:59;6.35;;;3.10;;
51901;SDS011;37929;53.218;6.548;2022-07-29T14:01:25;6.32;;;3.17;;
51901;SDS011;37929;53.218;6.548;2022-07-29T14:03:55;7.47;;;2.97;;
51901;SDS011;37929;53.218;6.548;2022-07-29T14:06:21;9.05;;;2.92;;
51901;SDS011;37929;53.218;6.548;2022-07-29T14:08:46;6.20;;;2.88;;
51901;SDS011;37929;53.218;6.548;2022-07-29T14:11:18;5.28;;;2.45;;
51901;SDS011;37929;53.218;6.548;2022-07-29T14:13:52;6.32;;;2.90;;
51901;SDS011;37929;53.218;6.548;2022-07-29T14:16:26;4.70;;;2.40;;
51901;SDS011;37929;53.218;6.548;2022-07-29T14:18:57;4.90;;;2.30;;
51901;SDS011;37929;53.218;6.548;2022-07-29T14:21:23;5.15;;;2.17;;
51901;SDS011;37929;53.218;6.548;2022-07-29T14:23:49;6.95;;;2.50;;
51901;SDS011;37929;53.218;6.548;2022-07-29T14:26:17;4.78;;;2.60;;
51901;SDS011;37929;53.218;6.548;2022-07-29T14:28:43;5.60;;;2.45;;
51901;SDS011;37929;53.218;6.548;2022-07-29T14:31:11;7.25;;;2.10;;
51901;SDS011;37929;53.218;6.548;2022-07-29T14:33:43;4.68;;;2.22;;
51901;SDS011;37929;53.218;6.548;2022-07-29T14:36:11;3.08;;;1.92;;
51901;SDS011;37929;53.218;6.548;2022-07-29T14:38:37;6.57;;;2.20;;
51901;SDS011;37929;53.218;6.548;2022-07-29T14:41:12;6.50;;;2.38;;
51901;SDS011;37929;53.218;6.548;2022-07-29T14:43:44;3.50;;;2.08;;
51901;SDS011;37929;53.218;6.548;2022-07-29T14:46:13;4.90;;;2.20;;
51901;SDS011;37929;53.218;6.548;2022-07-29T14:48:38;4.40;;;2.22;;
51901;SDS011;37929;53.218;6.548;2022-07-29T14:51:04;4.20;;;2.22;;
51901;SDS011;37929;53.218;6.548;2022-07-29T14:53:30;7.82;;;2.45;;
51901;SDS011;37929;53.218;6.548;2022-07-29T14:55:57;7.28;;;2.50;;
51901;SDS011;37929;53.218;6.548;2022-07-29T14:58:25;4.18;;;2.30;;
51901;SDS011;37929;53.218;6.548;2022-07-29T15:00:51;5.53;;;2.70;;
51901;SDS011;37929;53.218;6.548;2022-07-29T15:03:21;5.38;;;2.95;;
51901;SDS011;37929;53.218;6.548;2022-07-29T15:05:48;5.13;;;2.20;;
51901;SDS011;37929;53.218;6.548;2022-07-29T15:08:13;5.22;;;2.55;;
51901;SDS011;37929;53.218;6.548;2022-07-29T15:10:39;6.75;;;2.40;;
51901;SDS011;37929;53.218;6.548;2022-07-29T15:13:05;5.72;;;2.40;;
51901;SDS011;37929;53.218;6.548;2022-07-29T15:16:31;5.50;;;2.50;;
51901;SDS011;37929;53.218;6.548;2022-07-29T15:22:36;8.10;;;3.53;;
51901;SDS011;37929;53.218;6.548;2022-07-29T15:25:23;3.90;;;2.20;;
51901;SDS011;37929;53.218;6.548;2022-07-29T15:28:10;3.83;;;2.22;;
51901;SDS011;37929;53.218;6.548;2022-07-29T15:30:41;7.53;;;2.55;;
51901;SDS011;37929;53.218;6.548;2022-07-29T15:33:13;5.25;;;2.63;;
51901;SDS011;37929;53.218;6.548;2022-07-29T15:35:50;6.70;;;2.28;;
51901;SDS011;37929;53.218;6.548;2022-07-29T15:40:55;4.00;;;2.40;;
51901;SDS011;37929;53.218;6.548;2022-07-29T15:43:21;5.05;;;2.60;;
51901;SDS011;37929;53.218;6.548;2022-07-29T15:45:48;3.42;;;2.33;;
51901;SDS011;37929;53.218;6.548;2022-07-29T15:48:38;6.22;;;2.17;;
51901;SDS011;37929;53.218;6.548;2022-07-29T15:51:17;3.45;;;2.30;;
51901;SDS011;37929;53.218;6.548;2022-07-29T15:53:43;6.10;;;2.50;;
51901;SDS011;37929;53.218;6.548;2022-07-29T15:56:09;6.97;;;2.25;;
51901;SDS011;37929;53.218;6.548;2022-07-29T15:58:40;8.30;;;2.60;;
51901;SDS011;37929;53.218;6.548;2022-07-29T16:01:09;7.68;;;2.70;;
51901;SDS011;37929;53.218;6.548;2022-07-29T16:03:38;9.68;;;2.85;;
51901;SDS011;37929;53.218;6.548;2022-07-29T16:06:10;6.65;;;2.78;;
51901;SDS011;37929;53.218;6.548;2022-07-29T16:08:52;5.68;;;2.33;;
51901;SDS011;37929;53.218;6.548;2022-07-29T16:11:22;4.72;;;2.40;;
51901;SDS011;37929;53.218;6.548;2022-07-29T16:13:51;3.83;;;2.13;;
51901;SDS011;37929;53.218;6.548;2022-07-29T16:16:19;5.65;;;2.40;;
51901;SDS011;37929;53.218;6.548;2022-07-29T16:18:48;5.22;;;2.50;;
51901;SDS011;37929;53.218;6.548;2022-07-29T16:21:17;6.63;;;2.50;;
51901;SDS011;37929;53.218;6.548;2022-07-29T16:23:43;4.97;;;2.10;;
51901;SDS011;37929;53.218;6.548;2022-07-29T16:26:09;5.47;;;2.75;;
51901;SDS011;37929;53.218;6.548;2022-07-29T16:28:35;6.25;;;2.42;;
51901;SDS011;37929;53.218;6.548;2022-07-29T16:31:01;4.60;;;2.38;;
51901;SDS011;37929;53.218;6.548;2022-07-29T16:33:27;6.75;;;2.65;;
51901;SDS011;37929;53.218;6.548;2022-07-29T16:35:55;5.22;;;2.70;;
51901;SDS011;37929;53.218;6.548;2022-07-29T16:38:21;4.93;;;2.40;;
51901;SDS011;37929;53.218;6.548;2022-07-29T16:40:49;4.55;;;2.40;;
51901;SDS011;37929;53.218;6.548;2022-07-29T16:43:15;8.95;;;2.63;;
51901;SDS011;37929;53.218;6.548;2022-07-29T16:45:41;6.10;;;2.53;;
51901;SDS011;37929;53.218;6.548;2022-07-29T16:48:07;6.05;;;2.88;;